createdAt,value
2023-03-27T00:02:08.040Z,70.65
2023-03-27T00:05:00.895Z,71.02
2023-03-27T00:07:38.659Z,70.96
2023-03-27T00:10:24.258Z,70.36
2023-03-27T00:13:09.997Z,70.61
2023-03-27T00:16:00.374Z,70.33
2023-03-27T00:18:32.921Z,70.63
2023-03-27T00:21:06.096Z,71.48
2023-03-27T00:23:37.643Z,70.49
2023-03-27T00:26:09.642Z,71.50
2023-03-27T00:28:39.916Z,71.26
2023-03-27T00:31:15.293Z,70.58
2023-03-27T00:33:49.386Z,70.43
2023-03-27T00:36:19.620Z,70.98
2023-03-27T00:38:53.738Z,70.45
2023-03-27T00:41:27.192Z,70.73
2023-03-27T00:44:00.041Z,71.23
2023-03-27T00:46:41.796Z,71.28
2023-03-27T00:49:18.595Z,71.97
2023-03-27T00:51:50.677Z,72.11
2023-03-27T00:54:30.685Z,71.10
2023-03-27T00:57:08.126Z,71.10
2023-03-27T00:59:53.110Z,72.35
2023-03-27T01:02:29.570Z,71.44
2023-03-27T01:05:03.009Z,71.37
2023-03-27T01:07:35.479Z,72.39
2023-03-27T01:10:07.757Z,72.67
2023-03-27T01:12:50.639Z,72.61
2023-03-27T01:15:38.649Z,71.97
2023-03-27T01:18:35.965Z,72.78
2023-03-27T01:21:55.426Z,72.48
2023-03-27T01:25:09.978Z,72.39
2023-03-27T01:28:12.559Z,73.09
2023-03-27T01:30:53.626Z,72.22
2023-03-27T01:34:31.640Z,73.49
2023-03-27T01:37:39.891Z,73.10
2023-03-27T01:40:19.919Z,73.03
2023-03-27T01:42:57.244Z,72.79
2023-03-27T01:45:37.827Z,73.18
2023-03-27T01:50:52.473Z,73.80
2023-03-27T01:53:29.751Z,72.94
2023-03-27T01:56:12.335Z,73.08
2023-03-27T01:58:51.478Z,73.78
2023-03-27T02:01:31.007Z,73.73
2023-03-27T02:04:10.523Z,72.85
2023-03-27T02:06:46.291Z,73.06
2023-03-27T02:09:23.887Z,73.68
2023-03-27T02:12:01.442Z,72.58
2023-03-27T02:14:39.324Z,73.40
2023-03-27T02:17:14.732Z,73.22
2023-03-27T02:19:54.554Z,73.55
2023-03-27T02:22:37.259Z,73.79
2023-03-27T02:25:32.972Z,73.50
2023-03-27T02:28:31.065Z,72.44
2023-03-27T02:31:33.303Z,72.30
2023-03-27T02:34:29.892Z,71.58
2023-03-27T02:37:08.880Z,71.84
2023-03-27T02:39:52.361Z,72.25
2023-03-27T02:42:29.321Z,73.19
2023-03-27T02:45:13.920Z,73.58
2023-03-27T02:47:50.459Z,73.88
2023-03-27T02:50:30.405Z,74.29
2023-03-27T02:53:07.558Z,74.42
2023-03-27T02:55:44.812Z,73.93
2023-03-27T02:58:33.686Z,74.55
2023-03-27T03:01:15.329Z,75.01
2023-03-27T03:03:56.779Z,74.13
2023-03-27T03:06:33.128Z,74.36
2023-03-27T03:09:07.474Z,74.00
2023-03-27T03:11:43.925Z,74.42
2023-03-27T03:14:18.563Z,74.00
2023-03-27T03:16:53.835Z,74.95
2023-03-27T03:19:28.514Z,74.77
2023-03-27T03:22:02.229Z,74.70
2023-03-27T03:24:38.962Z,74.49
2023-03-27T03:27:14.836Z,75.01
2023-03-27T03:29:59.409Z,76.01
2023-03-27T03:32:35.345Z,75.75
2023-03-27T03:35:09.852Z,75.16
2023-03-27T03:37:43.094Z,76.41
2023-03-27T03:40:16.052Z,76.00
2023-03-27T03:43:00.529Z,75.84
2023-03-27T03:45:35.080Z,76.24
2023-03-27T03:48:08.809Z,75.27
2023-03-27T03:50:40.362Z,76.46
2023-03-27T03:53:20.461Z,76.20
2023-03-27T03:55:58.899Z,75.90
2023-03-27T03:58:34.844Z,76.44
2023-03-27T04:01:15.609Z,76.71
2023-03-27T04:03:49.733Z,76.28
2023-03-27T04:06:21.170Z,76.73
2023-03-27T04:08:50.498Z,76.50
2023-03-27T04:11:19.521Z,77.72
2023-03-27T04:13:48.290Z,76.44
2023-03-27T04:16:17.238Z,77.22
2023-03-27T04:18:50.784Z,76.66
2023-03-27T04:21:19.771Z,76.35
2023-03-27T04:23:49.589Z,76.66
2023-03-27T04:26:18.504Z,77.42
2023-03-27T04:28:52.046Z,77.39
2023-03-27T04:31:21.206Z,77.57
2023-03-27T04:33:53.110Z,78.12
2023-03-27T04:36:22.823Z,79.07
2023-03-27T04:38:51.825Z,78.88
2023-03-27T04:41:21.426Z,78.82
2023-03-27T04:43:50.111Z,79.28
2023-03-27T04:46:18.916Z,79.47
2023-03-27T04:48:47.968Z,79.29
2023-03-27T04:51:18.519Z,79.57
2023-03-27T04:53:47.450Z,79.36
2023-03-27T04:56:17.722Z,80.02
2023-03-27T04:58:47.059Z,80.09
2023-03-27T05:01:18.071Z,80.17
2023-03-27T05:03:49.273Z,80.81
2023-03-27T05:06:22.191Z,80.43
2023-03-27T05:08:52.259Z,80.73
2023-03-27T05:11:26.373Z,80.92
2023-03-27T05:13:57.638Z,80.74
2023-03-27T05:16:29.470Z,80.69
2023-03-27T05:18:58.823Z,80.79
2023-03-27T05:21:31.917Z,80.45
2023-03-27T05:24:03.687Z,81.14
2023-03-27T05:26:35.299Z,81.25
2023-03-27T05:29:06.080Z,81.01
2023-03-27T05:31:51.803Z,80.92
2023-03-27T05:34:28.351Z,80.33
2023-03-27T05:37:06.098Z,81.27
2023-03-27T05:39:39.680Z,80.85
2023-03-27T05:42:18.751Z,80.41
2023-03-27T05:45:09.684Z,80.10
2023-03-27T05:47:58.226Z,80.19
2023-03-27T05:50:37.264Z,81.06
2023-03-27T05:53:15.852Z,80.74
2023-03-27T05:55:46.454Z,80.47
2023-03-27T05:58:17.399Z,80.13
2023-03-27T06:00:59.681Z,80.37
2023-03-27T06:03:35.388Z,80.73
2023-03-27T06:06:11.387Z,80.67
2023-03-27T06:08:42.361Z,79.77
2023-03-27T06:11:12.933Z,80.13
2023-03-27T06:13:46.239Z,80.02
2023-03-27T06:16:24.967Z,79.98
2023-03-27T06:18:56.951Z,80.67
2023-03-27T06:21:28.072Z,80.66
2023-03-27T06:24:01.842Z,79.60
2023-03-27T06:26:41.725Z,79.64
2023-03-27T06:29:16.896Z,79.91
2023-03-27T06:31:47.106Z,79.77
2023-03-27T06:34:27.171Z,79.52
2023-03-27T06:37:00.083Z,79.22
2023-03-27T06:39:32.612Z,79.34
2023-03-27T06:42:02.195Z,79.11
2023-03-27T06:44:41.556Z,78.36
2023-03-27T06:47:10.996Z,79.25
2023-03-27T06:49:48.898Z,78.76
2023-03-27T06:52:18.302Z,78.51
2023-03-27T06:54:50.516Z,78.67
2023-03-27T06:57:20.560Z,78.29
2023-03-27T06:59:50.128Z,78.25
2023-03-27T07:02:19.691Z,78.29
2023-03-27T07:05:01.617Z,78.36
2023-03-27T07:07:37.661Z,77.96
2023-03-27T07:10:10.861Z,78.38
2023-03-27T07:12:55.686Z,78.18
2023-03-27T07:15:31.397Z,77.36
2023-03-27T07:18:03.286Z,77.87
2023-03-27T07:20:41.539Z,77.57
2023-03-27T07:23:12.642Z,77.18
2023-03-27T07:25:53.074Z,76.65
2023-03-27T07:28:55.334Z,76.43
2023-03-27T07:31:39.471Z,75.62
2023-03-27T07:34:16.781Z,74.87
2023-03-27T07:36:47.571Z,73.91
2023-03-27T07:39:17.414Z,74.33
2023-03-27T07:41:49.744Z,73.85
2023-03-27T07:45:09.074Z,73.69
2023-03-27T07:47:44.101Z,74.30
2023-03-27T07:50:18.438Z,74.00
2023-03-27T07:53:33.318Z,73.85
2023-03-27T07:56:05.633Z,73.64
2023-03-27T07:58:45.639Z,73.14
2023-03-27T08:01:17.429Z,72.30
2023-03-27T08:03:49.018Z,71.85
2023-03-27T08:06:20.075Z,71.40
2023-03-27T08:09:05.453Z,70.69
2023-03-27T08:11:41.380Z,71.11
2023-03-27T08:15:03.489Z,70.69
2023-03-27T08:17:36.930Z,70.13
2023-03-27T08:20:15.893Z,69.99
2023-03-27T08:22:57.513Z,69.85
2023-03-27T08:25:42.272Z,69.47
2023-03-27T08:28:13.615Z,68.88
2023-03-27T08:30:48.276Z,68.70
2023-03-27T08:33:19.774Z,68.09
2023-03-27T08:36:02.112Z,68.06
2023-03-27T08:38:40.082Z,68.07
2023-03-27T08:41:27.225Z,66.38
2023-03-27T08:43:58.292Z,66.69
2023-03-27T08:46:43.172Z,65.98
2023-03-27T08:49:24.527Z,66.58
2023-03-27T08:52:03.012Z,65.64
2023-03-27T08:54:42.869Z,65.64
2023-03-27T08:57:21.695Z,65.91
2023-03-27T09:00:00.829Z,65.93
2023-03-27T09:02:46.577Z,64.65
2023-03-27T09:05:44.423Z,64.98
2023-03-27T09:08:32.484Z,64.31
2023-03-27T09:11:16.223Z,64.46
2023-03-27T09:13:49.437Z,64.60
2023-03-27T09:16:29.200Z,66.85
2023-03-27T09:19:13.519Z,68.26
2023-03-27T09:21:51.497Z,69.03
2023-03-27T09:24:33.123Z,68.95
2023-03-27T09:27:17.184Z,68.04
2023-03-27T09:29:48.336Z,67.74
2023-03-27T09:32:18.724Z,66.61
2023-03-27T09:34:49.729Z,65.59
2023-03-27T09:37:56.075Z,63.55
2023-03-27T09:40:35.078Z,62.87
2023-03-27T09:43:13.843Z,61.18
2023-03-27T09:45:44.925Z,61.52
2023-03-27T09:48:28.840Z,61.30
2023-03-27T09:51:03.144Z,60.14
2023-03-27T09:53:33.868Z,59.45
2023-03-27T09:56:43.250Z,60.00
2023-03-27T09:59:31.170Z,59.80
2023-03-27T10:02:08.051Z,59.52
2023-03-27T10:04:39.341Z,58.00
2023-03-27T10:07:30.512Z,58.38
2023-03-27T10:10:29.803Z,57.76
2023-03-27T10:13:24.155Z,57.31
2023-03-27T10:16:02.602Z,56.48
2023-03-27T10:18:36.564Z,56.24
2023-03-27T10:21:14.239Z,57.25
2023-03-27T10:24:06.413Z,57.41
2023-03-27T10:26:41.682Z,57.05
2023-03-27T10:29:40.984Z,56.74
2023-03-27T10:32:43.059Z,56.22
2023-03-27T10:35:41.476Z,55.52
2023-03-27T10:38:18.196Z,55.45
2023-03-27T10:44:41.198Z,54.57
2023-03-27T10:47:22.820Z,55.23
2023-03-27T10:53:56.426Z,53.92
2023-03-27T10:56:58.460Z,53.24
2023-03-27T10:59:43.120Z,53.09
2023-03-27T11:02:29.655Z,53.62
2023-03-27T11:05:06.120Z,52.67
2023-03-27T11:07:43.338Z,51.62
2023-03-27T11:10:32.356Z,53.06
2023-03-27T11:13:15.343Z,57.13
2023-03-27T11:15:51.859Z,59.62
2023-03-27T11:18:41.887Z,62.03
2023-03-27T11:21:17.530Z,63.28
2023-03-27T11:24:00.737Z,63.93
2023-03-27T11:26:42.259Z,63.90
2023-03-27T11:29:48.941Z,63.42
2023-03-27T11:32:44.138Z,62.36
2023-03-27T11:35:19.504Z,61.55
2023-03-27T11:37:56.705Z,61.32
2023-03-27T11:40:43.985Z,60.64
2023-03-27T11:43:14.841Z,59.63
2023-03-27T11:46:05.258Z,57.60
2023-03-27T11:49:04.174Z,58.32
2023-03-27T11:51:58.448Z,61.22
2023-03-27T11:55:09.012Z,63.42
2023-03-27T11:58:18.399Z,65.11
2023-03-27T12:01:46.911Z,65.66
2023-03-27T12:04:54.621Z,65.17
2023-03-27T12:07:48.425Z,64.82
2023-03-27T12:10:34.058Z,64.96
2023-03-27T12:14:17.675Z,63.16
2023-03-27T12:17:45.653Z,61.91
2023-03-27T12:20:52.835Z,60.40
2023-03-27T12:24:01.857Z,59.21
2023-03-27T12:26:57.944Z,57.17
2023-03-27T12:29:51.443Z,55.80
2023-03-27T12:32:57.686Z,52.73
2023-03-27T12:35:43.861Z,51.69
2023-03-27T12:38:30.875Z,51.79
2023-03-27T12:41:14.120Z,51.37
2023-03-27T12:43:51.637Z,51.10
2023-03-27T12:46:39.529Z,49.60
2023-03-27T12:49:48.088Z,50.31
2023-03-27T12:52:23.003Z,50.04
2023-03-27T12:55:42.957Z,48.07
2023-03-27T12:58:35.752Z,47.21
2023-03-27T13:01:11.224Z,47.39
2023-03-27T13:04:18.077Z,46.53
2023-03-27T13:07:03.132Z,45.97
2023-03-27T13:10:10.792Z,43.76
2023-03-27T13:13:08.017Z,43.75
2023-03-27T13:16:21.696Z,43.65
2023-03-27T13:19:37.159Z,44.85
2023-03-27T13:23:01.393Z,43.77
2023-03-27T13:26:01.355Z,42.88
2023-03-27T13:28:38.251Z,43.38
2023-03-27T13:31:17.200Z,43.84
2023-03-27T13:34:16.409Z,42.94
2023-03-27T13:37:06.052Z,42.38
2023-03-27T13:40:09.472Z,41.08
2023-03-27T13:42:46.765Z,40.60
2023-03-27T13:45:49.599Z,39.92
2023-03-27T13:49:47.939Z,39.25
2023-03-27T13:53:45.454Z,40.81
2023-03-27T13:56:43.149Z,42.71
2023-03-27T14:00:04.680Z,47.74
2023-03-27T14:03:54.258Z,51.98
2023-03-27T14:07:11.974Z,50.01
2023-03-27T14:10:33.697Z,47.67
2023-03-27T14:13:31.685Z,46.92
2023-03-27T14:16:38.805Z,47.93
2023-03-27T14:20:13.406Z,48.81
2023-03-27T14:26:08.637Z,46.07
2023-03-27T14:29:02.391Z,44.35
2023-03-27T14:31:37.385Z,44.77
2023-03-27T14:34:18.871Z,45.70
2023-03-27T14:36:52.722Z,43.99
2023-03-27T14:39:35.582Z,43.78
2023-03-27T14:42:15.486Z,46.51
2023-03-27T14:44:58.918Z,48.05
2023-03-27T14:47:32.658Z,46.99
2023-03-27T14:50:03.978Z,46.90
2023-03-27T14:52:36.862Z,48.88
2023-03-27T14:55:12.923Z,48.73
2023-03-27T14:57:47.104Z,47.17
2023-03-27T15:00:28.124Z,46.07
2023-03-27T15:02:59.067Z,44.77
2023-03-27T15:05:34.229Z,44.18
2023-03-27T15:08:27.349Z,45.54
2023-03-27T15:10:58.679Z,46.60
2023-03-27T15:13:41.960Z,45.02
2023-03-27T15:16:24.175Z,44.64
2023-03-27T15:19:10.073Z,42.56
2023-03-27T15:21:55.258Z,40.33
2023-03-27T15:24:37.360Z,39.68
2023-03-27T15:27:08.460Z,38.78
2023-03-27T15:29:42.916Z,38.60
2023-03-27T15:32:23.017Z,37.70
2023-03-27T15:35:06.687Z,37.66
2023-03-27T15:37:37.809Z,38.22
2023-03-27T15:40:52.392Z,39.39
2023-03-27T15:44:28.548Z,39.33
2023-03-27T15:47:01.164Z,38.53
2023-03-27T15:49:39.011Z,37.35
2023-03-27T15:52:40.081Z,37.46
2023-03-27T15:55:43.384Z,37.47
2023-03-27T15:58:32.341Z,36.89
2023-03-27T16:01:19.085Z,37.63
2023-03-27T16:04:06.074Z,39.91
2023-03-27T16:07:21.976Z,38.88
2023-03-27T16:09:59.645Z,38.93
2023-03-27T16:12:34.721Z,38.50
2023-03-27T16:15:23.312Z,38.24
2023-03-27T16:17:53.936Z,37.39
2023-03-27T16:20:54.599Z,37.20
2023-03-27T16:23:38.244Z,39.55
2023-03-27T16:26:27.363Z,42.25
2023-03-27T16:29:12.843Z,42.97
2023-03-27T16:31:43.604Z,41.69
2023-03-27T16:34:23.251Z,40.45
2023-03-27T16:37:10.570Z,40.91
2023-03-27T16:39:43.021Z,40.15
2023-03-27T16:42:33.449Z,40.45
2023-03-27T16:45:16.975Z,41.44
2023-03-27T16:47:51.543Z,42.51
2023-03-27T16:50:32.850Z,43.79
2023-03-27T16:53:11.121Z,44.16
2023-03-27T16:55:45.170Z,42.92
2023-03-27T16:58:15.703Z,43.07
2023-03-27T17:01:15.526Z,42.68
2023-03-27T17:04:16.837Z,43.77
2023-03-27T17:06:52.465Z,45.01
2023-03-27T17:09:23.908Z,46.36
2023-03-27T17:11:59.449Z,47.95
2023-03-27T17:14:33.337Z,47.80
2023-03-27T17:17:16.782Z,47.61
2023-03-27T17:20:17.347Z,47.73
2023-03-27T17:22:54.988Z,47.30
2023-03-27T17:25:31.180Z,47.42
2023-03-27T17:28:07.502Z,48.94
2023-03-27T17:30:42.717Z,48.14
2023-03-27T17:33:17.193Z,49.03
2023-03-27T17:36:03.494Z,50.02
2023-03-27T17:38:46.187Z,51.36
2023-03-27T17:41:17.743Z,50.92
2023-03-27T17:43:49.955Z,51.97
2023-03-27T17:46:19.043Z,51.83
2023-03-27T17:48:49.353Z,52.40
2023-03-27T17:51:20.888Z,53.02
2023-03-27T17:53:50.932Z,53.58
2023-03-27T17:59:11.895Z,54.00
2023-03-27T18:01:55.762Z,54.76
2023-03-27T18:04:31.493Z,54.87
2023-03-27T18:07:05.835Z,55.44
2023-03-27T18:09:53.206Z,55.98
2023-03-27T18:13:05.474Z,56.54
2023-03-27T18:15:39.946Z,56.98
2023-03-27T18:18:35.629Z,57.52
2023-03-27T18:21:36.190Z,57.34
2023-03-27T18:24:48.261Z,57.88
2023-03-27T18:27:36.250Z,58.17
2023-03-27T18:30:09.489Z,57.72
2023-03-27T18:32:49.579Z,57.45
2023-03-27T18:35:44.875Z,57.82
2023-03-27T18:38:18.092Z,58.09
2023-03-27T18:40:50.014Z,58.13
2023-03-27T18:43:23.342Z,59.12
2023-03-27T18:46:12.002Z,59.10
2023-03-27T18:48:54.270Z,60.36
2023-03-27T18:51:33.498Z,61.00
2023-03-27T18:54:10.530Z,61.51
2023-03-27T18:56:40.433Z,62.15
2023-03-27T18:59:49.316Z,62.15
2023-03-27T19:02:23.002Z,62.64
2023-03-27T19:05:08.520Z,62.91
2023-03-27T19:07:45.019Z,63.30
2023-03-27T19:13:44.281Z,63.92
2023-03-27T19:16:17.593Z,63.41
2023-03-27T19:18:53.906Z,63.38
2023-03-27T19:21:31.744Z,63.60
2023-03-27T19:24:10.078Z,63.76
2023-03-27T19:26:44.905Z,64.82
2023-03-27T19:29:18.615Z,64.62
2023-03-27T19:31:53.038Z,65.04
2023-03-27T19:34:42.004Z,65.39
2023-03-27T19:37:20.204Z,64.88
2023-03-27T19:40:33.125Z,65.04
2023-03-27T19:43:30.378Z,65.45
2023-03-27T19:46:16.135Z,65.88
2023-03-27T19:48:53.059Z,65.89
2023-03-27T19:51:29.658Z,65.79
2023-03-27T19:54:03.709Z,65.71
2023-03-27T19:56:36.592Z,66.61
2023-03-27T19:59:08.559Z,66.46
2023-03-27T20:01:58.755Z,66.99
2023-03-27T20:04:33.187Z,67.70
2023-03-27T20:07:07.283Z,67.54
2023-03-27T20:09:53.246Z,68.35
2023-03-27T20:12:32.930Z,67.84
2023-03-27T20:15:11.888Z,69.09
2023-03-27T20:17:43.688Z,68.29
2023-03-27T20:20:14.619Z,68.74
2023-03-27T20:22:56.999Z,68.99
2023-03-27T20:25:34.264Z,68.56
2023-03-27T20:28:29.631Z,68.44
2023-03-27T20:31:09.202Z,69.03
2023-03-27T20:33:39.000Z,69.42
2023-03-27T20:36:10.521Z,69.45
2023-03-27T20:38:40.531Z,69.32
2023-03-27T20:41:16.405Z,68.64
2023-03-27T20:43:47.806Z,68.57
2023-03-27T20:46:19.099Z,68.64
2023-03-27T20:48:54.140Z,68.58
2023-03-27T20:51:32.666Z,68.93
2023-03-27T20:54:02.482Z,68.86
2023-03-27T20:56:45.202Z,68.54
2023-03-27T20:59:41.763Z,68.91
2023-03-27T21:02:44.679Z,68.81
2023-03-27T21:05:17.145Z,68.61
2023-03-27T21:07:53.242Z,68.58
2023-03-27T21:10:30.700Z,68.36
2023-03-27T21:13:02.586Z,69.16
2023-03-27T21:15:33.997Z,68.85
2023-03-27T21:18:04.435Z,69.28
2023-03-27T21:20:35.453Z,69.22
2023-03-27T21:23:05.886Z,69.23
2023-03-27T21:25:37.172Z,70.03
2023-03-27T21:28:14.596Z,69.59
2023-03-27T21:30:48.725Z,69.92
2023-03-27T21:33:19.939Z,70.18
2023-03-27T21:35:52.135Z,69.64
2023-03-27T21:38:27.000Z,70.03
2023-03-27T21:40:57.917Z,69.59
2023-03-27T21:43:44.722Z,70.36
2023-03-27T21:46:16.187Z,70.32
2023-03-27T21:48:56.204Z,70.18
2023-03-27T21:51:29.941Z,70.75
2023-03-27T21:54:03.407Z,70.88
2023-03-27T21:56:33.529Z,70.88
2023-03-27T21:59:20.086Z,71.52
2023-03-27T22:01:49.587Z,71.08
2023-03-27T22:04:21.765Z,71.14
2023-03-27T22:06:59.047Z,71.23
2023-03-27T22:09:33.280Z,71.27
2023-03-27T22:12:08.867Z,72.28
2023-03-27T22:14:42.593Z,72.40
2023-03-27T22:17:29.073Z,72.02
2023-03-27T22:20:05.820Z,72.31
2023-03-27T22:22:39.717Z,71.89
2023-03-27T22:25:13.018Z,72.28
2023-03-27T22:27:47.584Z,71.86
2023-03-27T22:31:01.790Z,72.45
2023-03-27T22:33:50.757Z,71.64
2023-03-27T22:36:24.300Z,72.21
2023-03-27T22:38:59.771Z,72.34
2023-03-27T22:41:39.680Z,71.30
2023-03-27T22:44:14.623Z,71.40
2023-03-27T22:47:05.073Z,71.25
2023-03-27T22:49:42.558Z,71.91
2023-03-27T22:52:31.655Z,71.55
2023-03-27T22:55:16.400Z,70.83
2023-03-27T22:57:53.510Z,71.13
2023-03-27T23:00:30.115Z,71.13
2023-03-27T23:03:06.675Z,70.95
2023-03-27T23:05:45.592Z,70.59
2023-03-27T23:08:19.148Z,71.29
2023-03-27T23:10:59.402Z,71.46
2023-03-27T23:13:33.698Z,70.97
2023-03-27T23:16:13.774Z,71.38
2023-03-27T23:19:00.857Z,71.20
2023-03-27T23:21:36.965Z,71.63
2023-03-27T23:24:11.590Z,71.29
2023-03-27T23:26:46.941Z,72.05
2023-03-27T23:29:18.926Z,72.34
2023-03-27T23:31:49.559Z,72.98
2023-03-27T23:34:44.293Z,71.94
2023-03-27T23:37:33.899Z,72.41
2023-03-27T23:40:05.994Z,72.69
2023-03-27T23:42:38.989Z,73.33
2023-03-27T23:45:37.098Z,73.27
2023-03-27T23:48:09.970Z,72.40
2023-03-27T23:50:43.568Z,72.83
2023-03-27T23:53:16.842Z,73.63
2023-03-27T23:55:47.536Z,73.19
2023-03-27T23:58:18.753Z,73.20
